sensor_id;sensor_type;location;lat;lon;timestamp;P1;durP1;ratioP1;P2;durP2;ratioP2
23952;SDS011;12163;49.316;6.092;2023-03-15T00:01:42;12.48;;;3.60;;
23952;SDS011;12163;49.316;6.092;2023-03-15T00:04:12;11.23;;;3.67;;
23952;SDS011;12163;49.316;6.092;2023-03-15T00:06:39;10.23;;;3.80;;
23952;SDS011;12163;49.316;6.092;2023-03-15T00:09:06;11.00;;;3.60;;
23952;SDS011;12163;49.316;6.092;2023-03-15T00:11:32;12.80;;;3.42;;
23952;SDS011;12163;49.316;6.092;2023-03-15T00:13:59;13.57;;;3.58;;
23952;SDS011;12163;49.316;6.092;2023-03-15T00:16:28;6.68;;;3.42;;
23952;SDS011;12163;49.316;6.092;2023-03-15T00:18:55;11.80;;;3.60;;
23952;SDS011;12163;49.316;6.092;2023-03-15T00:21:22;10.18;;;3.38;;
23952;SDS011;12163;49.316;6.092;2023-03-15T00:23:49;11.05;;;4.22;;
23952;SDS011;12163;49.316;6.092;2023-03-15T00:26:16;13.82;;;3.80;;
23952;SDS011;12163;49.316;6.092;2023-03-15T00:28:43;14.82;;;3.88;;
23952;SDS011;12163;49.316;6.092;2023-03-15T00:31:13;11.52;;;3.67;;
23952;SDS011;12163;49.316;6.092;2023-03-15T00:33:51;8.48;;;3.78;;
23952;SDS011;12163;49.316;6.092;2023-03-15T00:36:19;17.73;;;3.65;;
23952;SDS011;12163;49.316;6.092;2023-03-15T00:38:51;11.90;;;3.47;;
23952;SDS011;12163;49.316;6.092;2023-03-15T00:41:19;13.80;;;3.97;;
23952;SDS011;12163;49.316;6.092;2023-03-15T00:43:47;13.00;;;4.13;;
23952;SDS011;12163;49.316;6.092;2023-03-15T00:46:15;10.52;;;4.38;;
23952;SDS011;12163;49.316;6.092;2023-03-15T00:48:43;16.92;;;4.75;;
23952;SDS011;12163;49.316;6.092;2023-03-15T00:51:14;13.85;;;4.20;;
23952;SDS011;12163;49.316;6.092;2023-03-15T00:53:47;12.43;;;3.95;;
23952;SDS011;12163;49.316;6.092;2023-03-15T00:56:15;13.48;;;4.43;;
23952;SDS011;12163;49.316;6.092;2023-03-15T00:58:46;12.27;;;4.78;;
23952;SDS011;12163;49.316;6.092;2023-03-15T01:01:21;12.30;;;4.97;;
23952;SDS011;12163;49.316;6.092;2023-03-15T01:03:49;16.63;;;4.75;;
23952;SDS011;12163;49.316;6.092;2023-03-15T01:06:18;19.30;;;5.50;;
23952;SDS011;12163;49.316;6.092;2023-03-15T01:08:48;10.85;;;4.93;;
23952;SDS011;12163;49.316;6.092;2023-03-15T01:11:18;14.13;;;5.00;;
23952;SDS011;12163;49.316;6.092;2023-03-15T01:13:47;13.95;;;4.97;;
23952;SDS011;12163;49.316;6.092;2023-03-15T01:16:14;16.02;;;5.50;;
23952;SDS011;12163;49.316;6.092;2023-03-15T01:18:40;18.50;;;5.88;;
23952;SDS011;12163;49.316;6.092;2023-03-15T01:21:08;18.20;;;5.95;;
23952;SDS011;12163;49.316;6.092;2023-03-15T01:23:36;18.40;;;6.53;;
23952;SDS011;12163;49.316;6.092;2023-03-15T01:26:03;16.45;;;6.65;;
23952;SDS011;12163;49.316;6.092;2023-03-15T01:28:32;23.17;;;7.07;;
23952;SDS011;12163;49.316;6.092;2023-03-15T01:30:59;14.27;;;6.50;;
23952;SDS011;12163;49.316;6.092;2023-03-15T01:33:25;17.55;;;7.35;;
23952;SDS011;12163;49.316;6.092;2023-03-15T01:36:03;18.88;;;7.03;;
23952;SDS011;12163;49.316;6.092;2023-03-15T01:38:32;17.15;;;7.75;;
23952;SDS011;12163;49.316;6.092;2023-03-15T01:40:59;17.20;;;7.18;;
23952;SDS011;12163;49.316;6.092;2023-03-15T01:43:27;26.88;;;7.95;;
23952;SDS011;12163;49.316;6.092;2023-03-15T01:48:46;26.77;;;8.32;;
23952;SDS011;12163;49.316;6.092;2023-03-15T01:51:36;19.95;;;7.95;;
23952;SDS011;12163;49.316;6.092;2023-03-15T01:54:09;19.83;;;8.25;;
23952;SDS011;12163;49.316;6.092;2023-03-15T01:56:45;20.08;;;8.25;;
23952;SDS011;12163;49.316;6.092;2023-03-15T01:59:20;18.10;;;7.60;;
23952;SDS011;12163;49.316;6.092;2023-03-15T02:01:49;26.52;;;9.38;;
23952;SDS011;12163;49.316;6.092;2023-03-15T02:04:21;20.98;;;8.15;;
23952;SDS011;12163;49.316;6.092;2023-03-15T02:06:54;20.48;;;9.80;;
23952;SDS011;12163;49.316;6.092;2023-03-15T02:09:29;19.75;;;8.63;;
23952;SDS011;12163;49.316;6.092;2023-03-15T02:12:03;25.15;;;9.55;;
23952;SDS011;12163;49.316;6.092;2023-03-15T02:14:30;17.38;;;8.07;;
23952;SDS011;12163;49.316;6.092;2023-03-15T02:16:58;25.17;;;9.57;;
23952;SDS011;12163;49.316;6.092;2023-03-15T02:19:29;17.20;;;8.60;;
23952;SDS011;12163;49.316;6.092;2023-03-15T02:24:57;22.75;;;8.32;;
23952;SDS011;12163;49.316;6.092;2023-03-15T02:27:43;20.25;;;8.48;;
23952;SDS011;12163;49.316;6.092;2023-03-15T02:30:10;22.77;;;8.27;;
23952;SDS011;12163;49.316;6.092;2023-03-15T02:32:37;17.88;;;8.30;;
23952;SDS011;12163;49.316;6.092;2023-03-15T02:35:04;17.50;;;8.73;;
23952;SDS011;12163;49.316;6.092;2023-03-15T02:37:31;19.90;;;9.25;;
23952;SDS011;12163;49.316;6.092;2023-03-15T02:39:58;21.27;;;9.13;;
23952;SDS011;12163;49.316;6.092;2023-03-15T02:42:24;17.35;;;9.10;;
23952;SDS011;12163;49.316;6.092;2023-03-15T02:44:51;19.50;;;9.95;;
23952;SDS011;12163;49.316;6.092;2023-03-15T02:47:21;21.42;;;9.80;;
23952;SDS011;12163;49.316;6.092;2023-03-15T02:49:52;20.50;;;9.75;;
23952;SDS011;12163;49.316;6.092;2023-03-15T02:52:19;16.48;;;8.70;;
23952;SDS011;12163;49.316;6.092;2023-03-15T02:54:48;20.95;;;9.15;;
23952;SDS011;12163;49.316;6.092;2023-03-15T02:57:15;20.02;;;9.38;;
23952;SDS011;12163;49.316;6.092;2023-03-15T02:59:44;26.40;;;9.80;;
23952;SDS011;12163;49.316;6.092;2023-03-15T03:02:11;18.75;;;9.45;;
23952;SDS011;12163;49.316;6.092;2023-03-15T03:04:39;19.45;;;8.50;;
23952;SDS011;12163;49.316;6.092;2023-03-15T03:07:06;19.73;;;8.88;;
23952;SDS011;12163;49.316;6.092;2023-03-15T03:09:33;20.08;;;8.90;;
23952;SDS011;12163;49.316;6.092;2023-03-15T03:12:00;22.98;;;9.85;;
23952;SDS011;12163;49.316;6.092;2023-03-15T03:14:27;24.20;;;9.35;;
23952;SDS011;12163;49.316;6.092;2023-03-15T03:16:54;19.60;;;8.95;;
23952;SDS011;12163;49.316;6.092;2023-03-15T03:19:20;22.92;;;10.02;;
23952;SDS011;12163;49.316;6.092;2023-03-15T03:21:51;18.17;;;9.02;;
23952;SDS011;12163;49.316;6.092;2023-03-15T03:24:19;17.30;;;8.95;;
23952;SDS011;12163;49.316;6.092;2023-03-15T03:26:46;21.42;;;9.23;;
23952;SDS011;12163;49.316;6.092;2023-03-15T03:29:13;17.13;;;9.20;;
23952;SDS011;12163;49.316;6.092;2023-03-15T03:31:43;17.67;;;9.18;;
23952;SDS011;12163;49.316;6.092;2023-03-15T03:34:10;21.83;;;8.93;;
23952;SDS011;12163;49.316;6.092;2023-03-15T03:36:40;22.23;;;9.48;;
23952;SDS011;12163;49.316;6.092;2023-03-15T03:39:08;21.33;;;9.50;;
23952;SDS011;12163;49.316;6.092;2023-03-15T03:41:36;23.40;;;9.80;;
23952;SDS011;12163;49.316;6.092;2023-03-15T03:44:03;20.30;;;9.73;;
23952;SDS011;12163;49.316;6.092;2023-03-15T03:46:29;17.38;;;8.93;;
23952;SDS011;12163;49.316;6.092;2023-03-15T03:48:56;19.05;;;9.68;;
23952;SDS011;12163;49.316;6.092;2023-03-15T03:51:23;17.25;;;9.32;;
23952;SDS011;12163;49.316;6.092;2023-03-15T03:53:49;24.17;;;10.07;;
23952;SDS011;12163;49.316;6.092;2023-03-15T03:56:16;23.50;;;9.52;;
23952;SDS011;12163;49.316;6.092;2023-03-15T03:58:42;19.00;;;8.52;;
23952;SDS011;12163;49.316;6.092;2023-03-15T04:01:09;21.83;;;10.10;;
23952;SDS011;12163;49.316;6.092;2023-03-15T04:03:36;22.75;;;9.88;;
23952;SDS011;12163;49.316;6.092;2023-03-15T04:06:03;20.63;;;8.95;;
23952;SDS011;12163;49.316;6.092;2023-03-15T04:08:30;16.85;;;9.70;;
23952;SDS011;12163;49.316;6.092;2023-03-15T04:10:57;19.98;;;9.27;;
23952;SDS011;12163;49.316;6.092;2023-03-15T04:13:24;23.40;;;9.15;;
23952;SDS011;12163;49.316;6.092;2023-03-15T04:15:51;20.88;;;8.75;;
23952;SDS011;12163;49.316;6.092;2023-03-15T04:18:23;18.13;;;9.23;;
23952;SDS011;12163;49.316;6.092;2023-03-15T04:20:50;26.88;;;8.95;;
23952;SDS011;12163;49.316;6.092;2023-03-15T04:23:23;15.82;;;8.40;;
23952;SDS011;12163;49.316;6.092;2023-03-15T04:25:50;19.27;;;8.20;;
23952;SDS011;12163;49.316;6.092;2023-03-15T04:28:18;17.80;;;8.38;;
23952;SDS011;12163;49.316;6.092;2023-03-15T04:30:46;17.70;;;8.10;;
23952;SDS011;12163;49.316;6.092;2023-03-15T04:33:13;21.58;;;8.60;;
23952;SDS011;12163;49.316;6.092;2023-03-15T04:35:40;20.10;;;8.30;;
23952;SDS011;12163;49.316;6.092;2023-03-15T04:38:08;18.55;;;7.97;;
23952;SDS011;12163;49.316;6.092;2023-03-15T04:40:35;20.40;;;8.10;;
23952;SDS011;12163;49.316;6.092;2023-03-15T04:43:02;18.85;;;7.82;;
23952;SDS011;12163;49.316;6.092;2023-03-15T04:45:30;22.52;;;8.32;;
23952;SDS011;12163;49.316;6.092;2023-03-15T04:47:57;15.30;;;7.88;;
23952;SDS011;12163;49.316;6.092;2023-03-15T04:50:24;15.45;;;7.88;;
23952;SDS011;12163;49.316;6.092;2023-03-15T04:52:51;18.65;;;7.22;;
23952;SDS011;12163;49.316;6.092;2023-03-15T04:55:17;15.57;;;7.57;;
23952;SDS011;12163;49.316;6.092;2023-03-15T04:57:44;16.45;;;7.35;;
23952;SDS011;12163;49.316;6.092;2023-03-15T05:00:11;13.27;;;7.28;;
23952;SDS011;12163;49.316;6.092;2023-03-15T05:02:38;19.13;;;7.20;;
23952;SDS011;12163;49.316;6.092;2023-03-15T05:05:07;15.30;;;6.97;;
23952;SDS011;12163;49.316;6.092;2023-03-15T05:07:35;15.73;;;6.75;;
23952;SDS011;12163;49.316;6.092;2023-03-15T05:10:03;13.50;;;7.20;;
23952;SDS011;12163;49.316;6.092;2023-03-15T05:12:31;16.67;;;6.72;;
23952;SDS011;12163;49.316;6.092;2023-03-15T05:14:59;15.50;;;6.78;;
23952;SDS011;12163;49.316;6.092;2023-03-15T05:17:25;15.50;;;6.82;;
23952;SDS011;12163;49.316;6.092;2023-03-15T05:19:52;14.45;;;6.05;;
23952;SDS011;12163;49.316;6.092;2023-03-15T05:22:18;13.85;;;6.35;;
23952;SDS011;12163;49.316;6.092;2023-03-15T05:24:50;15.23;;;6.80;;
23952;SDS011;12163;49.316;6.092;2023-03-15T05:27:19;15.35;;;7.43;;
23952;SDS011;12163;49.316;6.092;2023-03-15T05:29:46;15.70;;;6.82;;
23952;SDS011;12163;49.316;6.092;2023-03-15T05:32:12;15.77;;;7.13;;
23952;SDS011;12163;49.316;6.092;2023-03-15T05:34:39;14.00;;;6.68;;
23952;SDS011;12163;49.316;6.092;2023-03-15T05:37:05;16.77;;;6.35;;
23952;SDS011;12163;49.316;6.092;2023-03-15T05:39:32;12.75;;;6.60;;
23952;SDS011;12163;49.316;6.092;2023-03-15T05:42:00;13.43;;;6.05;;
23952;SDS011;12163;49.316;6.092;2023-03-15T05:44:27;16.25;;;6.22;;
23952;SDS011;12163;49.316;6.092;2023-03-15T05:46:53;13.27;;;6.15;;
23952;SDS011;12163;49.316;6.092;2023-03-15T05:49:20;13.70;;;6.78;;
23952;SDS011;12163;49.316;6.092;2023-03-15T05:51:46;13.90;;;4.95;;
23952;SDS011;12163;49.316;6.092;2023-03-15T05:54:13;10.05;;;4.35;;
23952;SDS011;12163;49.316;6.092;2023-03-15T05:56:40;12.68;;;4.55;;
23952;SDS011;12163;49.316;6.092;2023-03-15T05:59:06;12.00;;;5.90;;
23952;SDS011;12163;49.316;6.092;2023-03-15T06:01:33;11.00;;;4.97;;
23952;SDS011;12163;49.316;6.092;2023-03-15T06:04:00;11.88;;;4.90;;
23952;SDS011;12163;49.316;6.092;2023-03-15T06:06:26;10.52;;;5.20;;
23952;SDS011;12163;49.316;6.092;2023-03-15T06:08:53;10.23;;;4.85;;
23952;SDS011;12163;49.316;6.092;2023-03-15T06:11:20;11.95;;;5.65;;
23952;SDS011;12163;49.316;6.092;2023-03-15T06:13:47;13.27;;;6.10;;
23952;SDS011;12163;49.316;6.092;2023-03-15T06:16:13;10.68;;;6.05;;
23952;SDS011;12163;49.316;6.092;2023-03-15T06:18:40;11.90;;;5.13;;
23952;SDS011;12163;49.316;6.092;2023-03-15T06:21:06;13.65;;;5.80;;
23952;SDS011;12163;49.316;6.092;2023-03-15T06:23:33;10.52;;;6.03;;
23952;SDS011;12163;49.316;6.092;2023-03-15T06:26:00;10.32;;;5.93;;
23952;SDS011;12163;49.316;6.092;2023-03-15T06:28:26;12.75;;;6.20;;
23952;SDS011;12163;49.316;6.092;2023-03-15T06:30:53;12.15;;;5.60;;
23952;SDS011;12163;49.316;6.092;2023-03-15T06:33:19;11.05;;;5.63;;
23952;SDS011;12163;49.316;6.092;2023-03-15T06:35:46;13.13;;;6.20;;
23952;SDS011;12163;49.316;6.092;2023-03-15T06:38:13;13.77;;;5.80;;
23952;SDS011;12163;49.316;6.092;2023-03-15T06:40:40;14.07;;;6.22;;
23952;SDS011;12163;49.316;6.092;2023-03-15T06:43:06;11.93;;;5.55;;
23952;SDS011;12163;49.316;6.092;2023-03-15T06:45:34;13.98;;;5.63;;
23952;SDS011;12163;49.316;6.092;2023-03-15T06:48:00;12.43;;;5.63;;
23952;SDS011;12163;49.316;6.092;2023-03-15T06:50:27;9.48;;;5.40;;
23952;SDS011;12163;49.316;6.092;2023-03-15T06:53:09;11.05;;;5.72;;
23952;SDS011;12163;49.316;6.092;2023-03-15T06:55:36;14.40;;;5.47;;
23952;SDS011;12163;49.316;6.092;2023-03-15T06:58:02;12.13;;;5.70;;
23952;SDS011;12163;49.316;6.092;2023-03-15T07:00:29;12.02;;;6.18;;
23952;SDS011;12163;49.316;6.092;2023-03-15T07:02:56;12.73;;;5.97;;
23952;SDS011;12163;49.316;6.092;2023-03-15T07:05:23;18.92;;;6.00;;
23952;SDS011;12163;49.316;6.092;2023-03-15T07:07:49;14.25;;;5.88;;
23952;SDS011;12163;49.316;6.092;2023-03-15T07:10:16;9.73;;;5.55;;
23952;SDS011;12163;49.316;6.092;2023-03-15T07:12:43;13.63;;;6.03;;
23952;SDS011;12163;49.316;6.092;2023-03-15T07:15:10;12.77;;;6.18;;
23952;SDS011;12163;49.316;6.092;2023-03-15T07:17:37;10.98;;;5.75;;
23952;SDS011;12163;49.316;6.092;2023-03-15T07:20:03;13.90;;;6.07;;
23952;SDS011;12163;49.316;6.092;2023-03-15T07:22:34;16.95;;;6.05;;
23952;SDS011;12163;49.316;6.092;2023-03-15T07:25:00;13.00;;;6.10;;
23952;SDS011;12163;49.316;6.092;2023-03-15T07:27:27;13.27;;;5.75;;
23952;SDS011;12163;49.316;6.092;2023-03-15T07:29:54;9.35;;;5.93;;
23952;SDS011;12163;49.316;6.092;2023-03-15T07:32:20;12.23;;;6.35;;
23952;SDS011;12163;49.316;6.092;2023-03-15T07:34:47;13.40;;;6.53;;
23952;SDS011;12163;49.316;6.092;2023-03-15T07:37:14;25.13;;;6.93;;
23952;SDS011;12163;49.316;6.092;2023-03-15T07:39:42;14.55;;;6.72;;
23952;SDS011;12163;49.316;6.092;2023-03-15T07:42:09;18.40;;;6.40;;
23952;SDS011;12163;49.316;6.092;2023-03-15T07:44:36;12.43;;;6.00;;
23952;SDS011;12163;49.316;6.092;2023-03-15T07:47:02;15.30;;;6.25;;
23952;SDS011;12163;49.316;6.092;2023-03-15T07:49:29;14.88;;;6.47;;
23952;SDS011;12163;49.316;6.092;2023-03-15T07:51:56;15.38;;;5.93;;
23952;SDS011;12163;49.316;6.092;2023-03-15T07:54:23;11.20;;;5.22;;
23952;SDS011;12163;49.316;6.092;2023-03-15T07:56:52;9.77;;;5.20;;
23952;SDS011;12163;49.316;6.092;2023-03-15T07:59:18;11.70;;;5.85;;
23952;SDS011;12163;49.316;6.092;2023-03-15T08:01:45;9.63;;;5.43;;
23952;SDS011;12163;49.316;6.092;2023-03-15T08:04:11;10.30;;;5.55;;
23952;SDS011;12163;49.316;6.092;2023-03-15T08:06:38;9.93;;;5.50;;
23952;SDS011;12163;49.316;6.092;2023-03-15T08:09:04;12.32;;;5.85;;
23952;SDS011;12163;49.316;6.092;2023-03-15T08:11:32;11.10;;;5.32;;
23952;SDS011;12163;49.316;6.092;2023-03-15T08:16:31;11.80;;;6.22;;
23952;SDS011;12163;49.316;6.092;2023-03-15T08:18:57;11.15;;;5.47;;
23952;SDS011;12163;49.316;6.092;2023-03-15T08:21:25;10.30;;;6.05;;
23952;SDS011;12163;49.316;6.092;2023-03-15T08:23:52;11.93;;;6.20;;
23952;SDS011;12163;49.316;6.092;2023-03-15T08:26:18;10.30;;;5.97;;
23952;SDS011;12163;49.316;6.092;2023-03-15T08:28:45;10.90;;;6.20;;
23952;SDS011;12163;49.316;6.092;2023-03-15T08:31:11;12.45;;;5.90;;
23952;SDS011;12163;49.316;6.092;2023-03-15T08:33:39;9.25;;;5.63;;
23952;SDS011;12163;49.316;6.092;2023-03-15T08:36:06;14.52;;;6.20;;
23952;SDS011;12163;49.316;6.092;2023-03-15T08:38:33;14.18;;;6.68;;
23952;SDS011;12163;49.316;6.092;2023-03-15T08:41:00;13.95;;;6.50;;
23952;SDS011;12163;49.316;6.092;2023-03-15T08:43:26;12.25;;;6.35;;
23952;SDS011;12163;49.316;6.092;2023-03-15T08:45:53;10.05;;;6.40;;
23952;SDS011;12163;49.316;6.092;2023-03-15T08:48:26;11.60;;;6.18;;
23952;SDS011;12163;49.316;6.092;2023-03-15T08:50:53;15.18;;;6.65;;
23952;SDS011;12163;49.316;6.092;2023-03-15T08:53:19;13.60;;;6.28;;
23952;SDS011;12163;49.316;6.092;2023-03-15T08:55:46;17.60;;;6.32;;
23952;SDS011;12163;49.316;6.092;2023-03-15T08:58:14;13.32;;;6.28;;
23952;SDS011;12163;49.316;6.092;2023-03-15T09:00:41;11.63;;;5.88;;
23952;SDS011;12163;49.316;6.092;2023-03-15T09:03:08;8.68;;;6.10;;
23952;SDS011;12163;49.316;6.092;2023-03-15T09:05:35;10.00;;;6.20;;
23952;SDS011;12163;49.316;6.092;2023-03-15T09:08:01;12.80;;;6.45;;
23952;SDS011;12163;49.316;6.092;2023-03-15T09:10:28;9.65;;;6.13;;
23952;SDS011;12163;49.316;6.092;2023-03-15T09:12:55;11.20;;;6.57;;
23952;SDS011;12163;49.316;6.092;2023-03-15T09:15:21;19.13;;;6.82;;
23952;SDS011;12163;49.316;6.092;2023-03-15T09:17:48;11.10;;;6.32;;
23952;SDS011;12163;49.316;6.092;2023-03-15T09:20:17;14.65;;;6.63;;
23952;SDS011;12163;49.316;6.092;2023-03-15T09:22:51;14.07;;;6.88;;
23952;SDS011;12163;49.316;6.092;2023-03-15T09:27:46;9.63;;;6.32;;
23952;SDS011;12163;49.316;6.092;2023-03-15T09:30:12;10.88;;;6.22;;
23952;SDS011;12163;49.316;6.092;2023-03-15T09:32:39;10.60;;;6.18;;
23952;SDS011;12163;49.316;6.092;2023-03-15T09:35:07;18.95;;;7.68;;
23952;SDS011;12163;49.316;6.092;2023-03-15T09:37:35;13.23;;;6.43;;
23952;SDS011;12163;49.316;6.092;2023-03-15T09:40:02;9.95;;;6.38;;
23952;SDS011;12163;49.316;6.092;2023-03-15T09:42:40;10.10;;;6.18;;
23952;SDS011;12163;49.316;6.092;2023-03-15T09:53:59;10.38;;;6.22;;
23952;SDS011;12163;49.316;6.092;2023-03-15T09:59:23;15.25;;;6.18;;
23952;SDS011;12163;49.316;6.092;2023-03-15T10:01:58;9.40;;;5.63;;
23952;SDS011;12163;49.316;6.092;2023-03-15T10:04:31;10.48;;;6.97;;
23952;SDS011;12163;49.316;6.092;2023-03-15T10:07:05;8.90;;;6.15;;
23952;SDS011;12163;49.316;6.092;2023-03-15T10:09:39;14.27;;;6.50;;
23952;SDS011;12163;49.316;6.092;2023-03-15T10:20:25;9.90;;;5.55;;
23952;SDS011;12163;49.316;6.092;2023-03-15T10:25:50;8.88;;;5.07;;
23952;SDS011;12163;49.316;6.092;2023-03-15T10:28:22;8.32;;;4.75;;
23952;SDS011;12163;49.316;6.092;2023-03-15T10:30:52;7.88;;;4.47;;
23952;SDS011;12163;49.316;6.092;2023-03-15T10:33:25;5.90;;;4.60;;
23952;SDS011;12163;49.316;6.092;2023-03-15T10:35:57;9.75;;;4.57;;
23952;SDS011;12163;49.316;6.092;2023-03-15T10:38:37;6.55;;;4.43;;
23952;SDS011;12163;49.316;6.092;2023-03-15T10:41:04;5.80;;;3.65;;
23952;SDS011;12163;49.316;6.092;2023-03-15T10:43:32;5.40;;;3.72;;
23952;SDS011;12163;49.316;6.092;2023-03-15T10:48:34;9.80;;;4.35;;
23952;SDS011;12163;49.316;6.092;2023-03-15T10:51:04;8.15;;;4.50;;
23952;SDS011;12163;49.316;6.092;2023-03-15T10:56:28;6.78;;;4.10;;
23952;SDS011;12163;49.316;6.092;2023-03-15T10:58:57;4.55;;;3.92;;
23952;SDS011;12163;49.316;6.092;2023-03-15T11:01:37;6.25;;;3.72;;
23952;SDS011;12163;49.316;6.092;2023-03-15T11:06:44;8.75;;;4.57;;
23952;SDS011;12163;49.316;6.092;2023-03-15T11:09:17;7.15;;;4.22;;
23952;SDS011;12163;49.316;6.092;2023-03-15T11:14:25;7.70;;;4.60;;
23952;SDS011;12163;49.316;6.092;2023-03-15T11:16:59;6.47;;;4.65;;
23952;SDS011;12163;49.316;6.092;2023-03-15T11:19:27;7.90;;;4.07;;
23952;SDS011;12163;49.316;6.092;2023-03-15T11:21:57;6.50;;;3.92;;
23952;SDS011;12163;49.316;6.092;2023-03-15T11:24:30;6.00;;;3.78;;
23952;SDS011;12163;49.316;6.092;2023-03-15T11:29:33;7.38;;;3.78;;
23952;SDS011;12163;49.316;6.092;2023-03-15T11:32:06;7.47;;;4.10;;
23952;SDS011;12163;49.316;6.092;2023-03-15T11:40:14;7.72;;;3.85;;
23952;SDS011;12163;49.316;6.092;2023-03-15T11:42:47;6.18;;;4.07;;
23952;SDS011;12163;49.316;6.092;2023-03-15T11:45:26;6.10;;;4.00;;
23952;SDS011;12163;49.316;6.092;2023-03-15T11:48:02;5.78;;;3.55;;
23952;SDS011;12163;49.316;6.092;2023-03-15T11:50:35;6.35;;;3.20;;
23952;SDS011;12163;49.316;6.092;2023-03-15T11:53:05;6.40;;;3.53;;
23952;SDS011;12163;49.316;6.092;2023-03-15T11:55:33;4.88;;;3.22;;
23952;SDS011;12163;49.316;6.092;2023-03-15T12:01:08;7.38;;;3.72;;
23952;SDS011;12163;49.316;6.092;2023-03-15T12:03:38;7.78;;;4.13;;
23952;SDS011;12163;49.316;6.092;2023-03-15T12:08:50;5.10;;;3.15;;
23952;SDS011;12163;49.316;6.092;2023-03-15T12:16:27;7.88;;;3.88;;
23952;SDS011;12163;49.316;6.092;2023-03-15T12:18:56;7.68;;;3.78;;
23952;SDS011;12163;49.316;6.092;2023-03-15T12:24:00;6.47;;;3.63;;
23952;SDS011;12163;49.316;6.092;2023-03-15T12:26:37;7.07;;;3.45;;
23952;SDS011;12163;49.316;6.092;2023-03-15T12:29:24;6.97;;;3.72;;
23952;SDS011;12163;49.316;6.092;2023-03-15T12:37:13;5.03;;;2.65;;
23952;SDS011;12163;49.316;6.092;2023-03-15T12:53:03;8.15;;;3.40;;
23952;SDS011;12163;49.316;6.092;2023-03-15T12:55:38;5.63;;;2.88;;
23952;SDS011;12163;49.316;6.092;2023-03-15T12:58:05;5.65;;;2.67;;
23952;SDS011;12163;49.316;6.092;2023-03-15T13:00:36;4.40;;;3.00;;
23952;SDS011;12163;49.316;6.092;2023-03-15T13:03:10;7.25;;;3.15;;
23952;SDS011;12163;49.316;6.092;2023-03-15T13:08:30;4.32;;;2.67;;
23952;SDS011;12163;49.316;6.092;2023-03-15T13:16:49;3.63;;;2.20;;
23952;SDS011;12163;49.316;6.092;2023-03-15T13:19:39;2.80;;;1.90;;
23952;SDS011;12163;49.316;6.092;2023-03-15T13:22:11;5.47;;;2.70;;
23952;SDS011;12163;49.316;6.092;2023-03-15T13:24:54;3.67;;;2.22;;
23952;SDS011;12163;49.316;6.092;2023-03-15T13:27:33;6.05;;;2.20;;
23952;SDS011;12163;49.316;6.092;2023-03-15T13:35:41;4.63;;;2.13;;
23952;SDS011;12163;49.316;6.092;2023-03-15T13:38:45;3.95;;;2.22;;
23952;SDS011;12163;49.316;6.092;2023-03-15T13:41:23;5.10;;;2.75;;
23952;SDS011;12163;49.316;6.092;2023-03-15T13:43:53;3.40;;;2.17;;
23952;SDS011;12163;49.316;6.092;2023-03-15T13:46:23;3.50;;;2.13;;
23952;SDS011;12163;49.316;6.092;2023-03-15T13:48:52;7.40;;;2.58;;
23952;SDS011;12163;49.316;6.092;2023-03-15T13:51:24;6.82;;;2.25;;
23952;SDS011;12163;49.316;6.092;2023-03-15T13:53:54;5.15;;;2.60;;
23952;SDS011;12163;49.316;6.092;2023-03-15T13:56:28;6.28;;;2.13;;
23952;SDS011;12163;49.316;6.092;2023-03-15T13:59:13;5.13;;;2.30;;
23952;SDS011;12163;49.316;6.092;2023-03-15T14:01:41;6.13;;;2.17;;
23952;SDS011;12163;49.316;6.092;2023-03-15T14:04:09;2.85;;;1.75;;
23952;SDS011;12163;49.316;6.092;2023-03-15T14:06:43;3.00;;;2.00;;
23952;SDS011;12163;49.316;6.092;2023-03-15T14:09:17;3.28;;;1.80;;
23952;SDS011;12163;49.316;6.092;2023-03-15T14:11:58;5.60;;;2.30;;
23952;SDS011;12163;49.316;6.092;2023-03-15T14:14:28;2.60;;;1.65;;
23952;SDS011;12163;49.316;6.092;2023-03-15T14:16:56;5.15;;;1.85;;
23952;SDS011;12163;49.316;6.092;2023-03-15T14:19:32;3.88;;;1.65;;
23952;SDS011;12163;49.316;6.092;2023-03-15T14:22:01;2.17;;;1.40;;
23952;SDS011;12163;49.316;6.092;2023-03-15T14:24:37;4.53;;;1.75;;
23952;SDS011;12163;49.316;6.092;2023-03-15T14:27:25;5.32;;;1.40;;
23952;SDS011;12163;49.316;6.092;2023-03-15T14:29:54;3.63;;;2.00;;
23952;SDS011;12163;49.316;6.092;2023-03-15T14:32:25;3.50;;;1.90;;
23952;SDS011;12163;49.316;6.092;2023-03-15T14:40:40;3.95;;;2.10;;
23952;SDS011;12163;49.316;6.092;2023-03-15T14:43:08;4.55;;;1.95;;
23952;SDS011;12163;49.316;6.092;2023-03-15T14:45:36;2.97;;;1.80;;
23952;SDS011;12163;49.316;6.092;2023-03-15T14:48:05;3.22;;;1.77;;
23952;SDS011;12163;49.316;6.092;2023-03-15T14:50:34;5.15;;;2.00;;
23952;SDS011;12163;49.316;6.092;2023-03-15T14:53:04;3.38;;;1.77;;
23952;SDS011;12163;49.316;6.092;2023-03-15T14:55:33;3.63;;;1.88;;
23952;SDS011;12163;49.316;6.092;2023-03-15T14:58:02;2.30;;;1.63;;
23952;SDS011;12163;49.316;6.092;2023-03-15T15:00:31;4.07;;;1.60;;
23952;SDS011;12163;49.316;6.092;2023-03-15T15:02:58;4.45;;;1.80;;
23952;SDS011;12163;49.316;6.092;2023-03-15T15:05:25;6.35;;;1.67;;
23952;SDS011;12163;49.316;6.092;2023-03-15T15:08:04;3.10;;;1.75;;
23952;SDS011;12163;49.316;6.092;2023-03-15T15:10:34;3.78;;;1.70;;
23952;SDS011;12163;49.316;6.092;2023-03-15T15:13:02;3.58;;;1.60;;
23952;SDS011;12163;49.316;6.092;2023-03-15T15:15:32;3.63;;;1.85;;
23952;SDS011;12163;49.316;6.092;2023-03-15T15:18:18;3.50;;;1.83;;
23952;SDS011;12163;49.316;6.092;2023-03-15T15:20:45;4.20;;;1.52;;
23952;SDS011;12163;49.316;6.092;2023-03-15T15:23:34;4.28;;;1.70;;
23952;SDS011;12163;49.316;6.092;2023-03-15T15:26:12;5.05;;;1.83;;
23952;SDS011;12163;49.316;6.092;2023-03-15T15:28:44;3.75;;;1.70;;
23952;SDS011;12163;49.316;6.092;2023-03-15T15:31:15;3.78;;;2.05;;
23952;SDS011;12163;49.316;6.092;2023-03-15T15:33:44;3.70;;;1.63;;
23952;SDS011;12163;49.316;6.092;2023-03-15T15:36:11;3.30;;;1.75;;
23952;SDS011;12163;49.316;6.092;2023-03-15T15:38:39;3.00;;;1.73;;
23952;SDS011;12163;49.316;6.092;2023-03-15T15:41:11;3.45;;;1.80;;
23952;SDS011;12163;49.316;6.092;2023-03-15T15:43:40;2.78;;;1.75;;
23952;SDS011;12163;49.316;6.092;2023-03-15T15:46:09;5.25;;;2.08;;
23952;SDS011;12163;49.316;6.092;2023-03-15T15:48:37;3.88;;;1.48;;
23952;SDS011;12163;49.316;6.092;2023-03-15T15:51:24;2.47;;;1.38;;
23952;SDS011;12163;49.316;6.092;2023-03-15T15:53:54;2.95;;;1.60;;
23952;SDS011;12163;49.316;6.092;2023-03-15T15:56:27;2.75;;;1.50;;
23952;SDS011;12163;49.316;6.092;2023-03-15T15:58:57;3.08;;;1.67;;
23952;SDS011;12163;49.316;6.092;2023-03-15T16:01:24;5.80;;;1.40;;
23952;SDS011;12163;49.316;6.092;2023-03-15T16:03:51;3.53;;;1.60;;
23952;SDS011;12163;49.316;6.092;2023-03-15T16:06:19;4.40;;;2.00;;
23952;SDS011;12163;49.316;6.092;2023-03-15T16:08:46;3.40;;;1.60;;
23952;SDS011;12163;49.316;6.092;2023-03-15T16:11:16;4.35;;;1.58;;
23952;SDS011;12163;49.316;6.092;2023-03-15T16:13:43;2.45;;;1.45;;
23952;SDS011;12163;49.316;6.092;2023-03-15T16:16:12;3.60;;;1.65;;
23952;SDS011;12163;49.316;6.092;2023-03-15T16:18:41;2.95;;;1.45;;
23952;SDS011;12163;49.316;6.092;2023-03-15T16:21:15;4.40;;;1.80;;
23952;SDS011;12163;49.316;6.092;2023-03-15T16:23:54;2.95;;;1.52;;
23952;SDS011;12163;49.316;6.092;2023-03-15T16:26:24;6.60;;;1.80;;
23952;SDS011;12163;49.316;6.092;2023-03-15T16:28:51;2.80;;;1.50;;
23952;SDS011;12163;49.316;6.092;2023-03-15T16:31:19;4.53;;;1.70;;
23952;SDS011;12163;49.316;6.092;2023-03-15T16:33:47;3.25;;;1.65;;
23952;SDS011;12163;49.316;6.092;2023-03-15T16:36:19;3.95;;;1.52;;